Time;durP1;ratioP1;P1;durP2;ratioP2;P2;SDS_P1;SDS_P2;PMS_P1;PMS_P2;Temp;Humidity;BMP_temperature;BMP_pressure;BME280_temperature;BME280_humidity;BME280_pressure;Samples;Min_cycle;Max_cycle;Signal;HPM_P1;HPM_P2
2023/10/12 00:02:15;;;;;;;9.05;4.95;;;20.40;99.90;;;;;;5091984;28;20205;-81
2023/10/12 00:04:43;;;;;;;8.25;5.20;;;20.40;99.90;;;;;;5095347;28;20223;-80
2023/10/12 00:07:15;;;;;;;11.93;4.57;;;20.40;99.90;;;;;;5092921;28;20931;-80
2023/10/12 00:09:47;;;;;;;6.70;4.07;;;20.40;99.90;;;;;;5089326;28;20540;-80
2023/10/12 00:12:15;;;;;;;8.65;5.10;;;20.40;99.90;;;;;;5089677;28;20193;-80
2023/10/12 00:14:42;;;;;;;8.02;4.93;;;20.30;99.90;;;;;;5085644;28;20559;-80
2023/10/12 00:17:12;;;;;;;9.63;4.70;;;20.30;99.90;;;;;;5084476;28;20193;-80
2023/10/12 00:19:39;;;;;;;11.20;5.50;;;20.30;99.90;;;;;;5083206;28;20193;-80
2023/10/12 00:22:11;;;;;;;9.07;4.93;;;20.30;99.90;;;;;;5090131;28;20204;-80
2023/10/12 00:24:39;;;;;;;8.18;4.75;;;20.30;99.90;;;;;;5092656;28;20216;-80
2023/10/12 00:27:09;;;;;;;8.13;4.50;;;20.20;99.90;;;;;;5087781;28;20197;-81
2023/10/12 00:29:39;;;;;;;8.77;4.70;;;20.20;99.90;;;;;;5091505;28;20208;-80
2023/10/12 00:32:07;;;;;;;10.88;4.88;;;20.10;99.90;;;;;;5087661;28;20201;-80
2023/10/12 00:34:58;;;;;;;9.45;4.72;;;20.10;99.90;;;;;;5089651;28;20220;-80
2023/10/12 00:37:26;;;;;;;9.95;5.07;;;20.10;99.90;;;;;;5088102;28;20189;-80
2023/10/12 00:39:59;;;;;;;7.80;4.95;;;20.00;99.90;;;;;;5091680;28;20206;-80
2023/10/12 00:42:32;;;;;;;9.25;5.63;;;20.00;99.90;;;;;;5090814;28;20202;-80
2023/10/12 00:45:06;;;;;;;8.30;4.97;;;20.00;99.90;;;;;;5086332;28;20216;-80
2023/10/12 00:47:43;;;;;;;11.15;5.10;;;20.00;99.90;;;;;;5092017;28;20189;-80
2023/10/12 00:50:14;;;;;;;8.48;5.38;;;20.00;99.90;;;;;;5086725;28;20200;-80
2023/10/12 00:52:54;;;;;;;8.18;5.57;;;19.90;99.90;;;;;;5088256;28;20201;-80
2023/10/12 00:55:34;;;;;;;10.27;5.28;;;19.90;99.90;;;;;;5084785;28;20193;-80
2023/10/12 00:58:04;;;;;;;11.45;6.05;;;19.80;99.90;;;;;;5090565;28;20221;-80
2023/10/12 01:00:44;;;;;;;11.55;5.97;;;19.80;99.90;;;;;;5088411;28;20189;-80
2023/10/12 01:06:12;;;;;;;11.07;5.35;;;19.60;99.90;;;;;;5090965;28;20772;-80
2023/10/12 01:08:43;;;;;;;9.32;5.32;;;19.60;99.90;;;;;;5085526;28;20193;-81
2023/10/12 01:11:18;;;;;;;12.07;5.40;;;19.60;99.90;;;;;;5092865;28;20209;-81
2023/10/12 01:13:48;;;;;;;8.32;5.20;;;19.60;99.90;;;;;;5094670;28;20221;-80
2023/10/12 01:16:23;;;;;;;9.27;5.75;;;19.60;99.90;;;;;;5095917;28;20208;-81
2023/10/12 01:18:57;;;;;;;11.93;5.32;;;19.60;99.90;;;;;;5093599;28;20580;-80
2023/10/12 01:21:28;;;;;;;10.23;6.00;;;19.60;99.90;;;;;;5095922;28;20212;-81
2023/10/12 01:24:02;;;;;;;13.48;5.50;;;19.60;99.90;;;;;;5093961;28;20217;-80
2023/10/12 01:26:32;;;;;;;9.35;5.32;;;19.60;99.90;;;;;;5089585;28;20193;-80
2023/10/12 01:29:00;;;;;;;10.82;4.90;;;19.50;99.90;;;;;;5086358;28;20192;-80
2023/10/12 01:31:28;;;;;;;12.15;5.45;;;19.60;99.90;;;;;;5089521;28;20200;-81
2023/10/12 01:33:57;;;;;;;9.45;5.05;;;19.60;99.90;;;;;;5093158;28;20209;-80
2023/10/12 01:36:27;;;;;;;11.30;6.03;;;19.60;99.90;;;;;;5093632;28;20197;-80
2023/10/12 01:39:10;;;;;;;9.90;6.13;;;19.60;99.90;;;;;;5094057;28;20209;-81
2023/10/12 01:41:41;;;;;;;11.30;6.03;;;19.50;99.90;;;;;;5093383;28;20220;-80
2023/10/12 01:44:10;;;;;;;11.30;5.50;;;19.50;99.90;;;;;;5091352;28;20213;-80
2023/10/12 01:46:40;;;;;;;9.65;5.32;;;19.40;99.90;;;;;;5094157;28;20185;-80
2023/10/12 01:49:08;;;;;;;10.07;6.18;;;19.20;99.90;;;;;;5092793;28;20207;-80
2023/10/12 01:51:40;;;;;;;9.30;6.10;;;19.20;99.90;;;;;;5094443;28;20200;-80
2023/10/12 01:54:12;;;;;;;8.85;5.60;;;19.10;99.90;;;;;;5093360;28;20212;-80
2023/10/12 01:56:41;;;;;;;9.63;5.82;;;19.20;99.90;;;;;;5092488;28;20197;-80
2023/10/12 01:59:08;;;;;;;9.40;5.88;;;19.10;99.90;;;;;;5092264;28;20216;-80
2023/10/12 02:01:42;;;;;;;13.85;6.60;;;19.10;99.90;;;;;;5091169;28;20201;-80
2023/10/12 02:04:09;;;;;;;10.55;7.05;;;19.00;99.90;;;;;;5093037;28;20225;-80
2023/10/12 02:06:39;;;;;;;11.48;8.57;;;18.90;99.90;;;;;;5092183;28;20201;-80
2023/10/12 02:09:09;;;;;;;12.60;8.63;;;18.80;99.90;;;;;;5086430;28;20189;-80
2023/10/12 02:11:42;;;;;;;13.23;9.93;;;18.70;99.90;;;;;;5093186;28;20200;-80
2023/10/12 02:14:12;;;;;;;15.88;10.70;;;18.60;99.90;;;;;;5089697;28;20232;-80
2023/10/12 02:16:52;;;;;;;17.58;10.50;;;18.50;99.90;;;;;;5087691;28;20208;-80
2023/10/12 02:19:31;;;;;;;14.95;11.18;;;18.50;99.90;;;;;;5087262;28;20579;-80
2023/10/12 02:22:01;;;;;;;16.13;10.80;;;18.40;99.90;;;;;;5092570;28;20196;-80
2023/10/12 02:24:29;;;;;;;18.90;11.32;;;18.40;99.90;;;;;;5092894;28;20597;-80
2023/10/12 02:27:00;;;;;;;19.63;12.15;;;18.40;99.90;;;;;;5093043;28;20205;-80
2023/10/12 02:29:35;;;;;;;16.33;12.95;;;18.30;99.90;;;;;;5092728;28;20189;-80
2023/10/12 02:32:17;;;;;;;18.23;12.90;;;18.10;99.90;;;;;;5092972;28;20197;-80
2023/10/12 02:34:46;;;;;;;21.95;14.15;;;18.10;99.90;;;;;;5092594;28;20217;-80
2023/10/12 02:37:21;;;;;;;19.42;13.35;;;18.10;99.90;;;;;;5093306;28;20674;-80
2023/10/12 02:39:48;;;;;;;21.95;14.18;;;18.00;99.90;;;;;;5091217;28;20216;-80
2023/10/12 02:42:22;;;;;;;22.50;15.00;;;17.80;99.90;;;;;;5092428;28;20208;-80
2023/10/12 02:45:08;;;;;;;19.40;14.48;;;17.70;99.90;;;;;;5092200;28;20240;-80
2023/10/12 02:47:40;;;;;;;21.23;16.13;;;17.80;99.90;;;;;;5092770;28;20197;-80
2023/10/12 02:50:20;;;;;;;18.10;15.05;;;17.70;99.90;;;;;;5093982;28;20647;-80
2023/10/12 02:52:51;;;;;;;23.17;16.08;;;17.50;99.90;;;;;;5091760;28;20216;-80
2023/10/12 02:55:25;;;;;;;20.50;14.88;;;17.40;99.90;;;;;;5091015;28;20213;-80
2023/10/12 02:57:56;;;;;;;19.73;14.95;;;17.30;99.90;;;;;;5090975;28;20208;-80
2023/10/12 03:00:34;;;;;;;19.42;15.45;;;17.30;99.90;;;;;;5085823;28;20223;-80
2023/10/12 03:03:07;;;;;;;19.55;15.10;;;17.20;99.90;;;;;;5093134;28;20203;-80
2023/10/12 03:05:45;;;;;;;21.85;16.23;;;17.10;99.90;;;;;;5090735;28;20204;-80
2023/10/12 03:08:23;;;;;;;28.25;16.48;;;17.10;99.90;;;;;;5088513;28;20197;-80
2023/10/12 03:11:12;;;;;;;22.48;14.10;;;17.10;99.90;;;;;;5089834;28;20204;-80
2023/10/12 03:13:42;;;;;;;23.50;16.42;;;17.10;99.90;;;;;;5091286;28;20224;-82
2023/10/12 03:16:20;;;;;;;25.50;16.55;;;17.00;99.90;;;;;;5091117;28;20197;-80
2023/10/12 03:18:57;;;;;;;22.75;15.93;;;17.00;99.90;;;;;;5089090;28;20200;-80
2023/10/12 03:21:27;;;;;;;22.35;16.73;;;16.90;99.90;;;;;;5086454;28;20200;-80
2023/10/12 03:23:56;;;;;;;23.10;16.40;;;16.90;99.90;;;;;;5084501;28;20228;-80
2023/10/12 03:26:25;;;;;;;23.88;16.63;;;17.00;99.90;;;;;;5092820;28;20189;-80
2023/10/12 03:28:53;;;;;;;20.73;15.48;;;17.00;99.90;;;;;;5087595;28;20201;-80
2023/10/12 03:31:23;;;;;;;23.15;15.77;;;16.90;99.90;;;;;;5086053;28;20203;-80
2023/10/12 03:33:55;;;;;;;19.98;13.90;;;17.00;99.90;;;;;;5093990;28;20231;-81
2023/10/12 03:36:24;;;;;;;17.95;14.25;;;17.00;99.90;;;;;;5096260;28;20215;-81
2023/10/12 03:39:08;;;;;;;16.52;13.05;;;17.00;99.90;;;;;;5096917;28;20200;-80
2023/10/12 03:44:35;;;;;;;19.83;12.68;;;17.00;99.90;;;;;;5092205;28;20213;-81
2023/10/12 03:47:14;;;;;;;21.92;14.63;;;17.10;99.90;;;;;;5096221;28;20196;-80
2023/10/12 03:49:57;;;;;;;19.85;13.25;;;17.00;99.90;;;;;;5096912;28;20189;-81
2023/10/12 03:52:30;;;;;;;18.67;13.65;;;17.00;99.90;;;;;;5103200;28;20189;-81
2023/10/12 03:55:16;;;;;;;15.43;11.18;;;17.00;99.90;;;;;;5101127;28;20221;-81
2023/10/12 03:57:47;;;;;;;18.27;12.55;;;17.10;99.90;;;;;;5100778;28;20204;-81
2023/10/12 04:00:25;;;;;;;18.48;12.80;;;17.00;99.90;;;;;;5100992;28;20200;-81
2023/10/12 04:02:58;;;;;;;18.83;14.60;;;16.90;99.90;;;;;;5099303;28;20205;-81
2023/10/12 04:05:50;;;;;;;18.23;13.52;;;17.00;99.90;;;;;;5099087;28;20204;-81
2023/10/12 04:16:45;;;;;;;15.60;12.15;;;16.90;99.90;;;;;;5074164;28;20207;-81
2023/10/12 04:19:17;;;;;;;16.75;12.68;;;16.90;99.90;;;;;;5091049;28;20193;-81
2023/10/12 04:22:04;;;;;;;18.88;13.95;;;16.90;99.90;;;;;;5095888;28;20201;-80
2023/10/12 04:24:42;;;;;;;18.23;12.70;;;16.70;99.90;;;;;;5090267;28;20216;-81
2023/10/12 04:27:24;;;;;;;16.67;12.48;;;16.70;99.90;;;;;;5083394;28;20643;-81
2023/10/12 04:29:56;;;;;;;19.75;14.40;;;16.80;99.90;;;;;;5093524;28;20197;-81
2023/10/12 04:32:52;;;;;;;20.92;14.30;;;16.60;99.90;;;;;;5097062;28;20216;-81
2023/10/12 04:35:27;;;;;;;19.60;13.50;;;16.60;99.90;;;;;;5096296;28;20224;-81
2023/10/12 04:37:56;;;;;;;18.48;13.60;;;16.70;99.90;;;;;;5095475;28;20209;-81
2023/10/12 04:40:37;;;;;;;19.02;13.98;;;16.50;99.90;;;;;;5093775;28;20228;-81
2023/10/12 04:43:06;;;;;;;19.77;14.75;;;16.50;99.90;;;;;;5095891;28;20201;-81
2023/10/12 04:46:05;;;;;;;20.02;14.10;;;16.40;99.90;;;;;;5093867;28;20189;-80
2023/10/12 04:48:31;;;;;;;19.58;13.90;;;16.60;99.90;;;;;;5097725;28;20193;-80
2023/10/12 04:51:06;;;;;;;19.98;13.85;;;16.60;99.90;;;;;;5095728;28;20189;-81
2023/10/12 04:53:53;;;;;;;18.92;13.93;;;16.60;99.90;;;;;;5095762;28;20223;-81
2023/10/12 04:56:23;;;;;;;18.15;13.20;;;16.60;99.90;;;;;;5094640;28;20200;-81
2023/10/12 04:58:57;;;;;;;16.25;11.27;;;16.60;99.90;;;;;;5096165;28;20212;-81
2023/10/12 05:01:30;;;;;;;21.02;12.95;;;16.70;99.90;;;;;;5091141;28;20679;-81
2023/10/12 05:04:08;;;;;;;19.33;13.63;;;16.60;99.90;;;;;;5094304;28;20225;-81
2023/10/12 05:06:46;;;;;;;19.77;13.65;;;16.50;99.90;;;;;;5095416;28;20560;-81
2023/10/12 05:09:18;;;;;;;19.52;13.68;;;16.50;99.90;;;;;;5096768;28;20208;-81
2023/10/12 05:11:46;;;;;;;17.45;13.15;;;16.60;99.90;;;;;;5090843;28;20192;-80
2023/10/12 05:14:15;;;;;;;20.00;14.02;;;16.60;99.90;;;;;;5095538;28;20220;-81
2023/10/12 05:16:45;;;;;;;18.35;13.60;;;16.60;99.90;;;;;;5095158;28;20193;-80
2023/10/12 05:19:12;;;;;;;19.10;12.63;;;16.40;99.90;;;;;;5095759;28;20204;-80
2023/10/12 05:21:41;;;;;;;16.67;12.52;;;16.40;99.90;;;;;;5088288;28;20261;-81
2023/10/12 05:24:09;;;;;;;18.42;13.32;;;16.30;99.90;;;;;;5084897;28;20222;-80
2023/10/12 05:26:40;;;;;;;17.55;13.48;;;16.30;99.90;;;;;;5096449;28;20639;-80
2023/10/12 05:29:34;;;;;;;19.75;12.25;;;16.40;99.90;;;;;;5093725;28;20204;-80
2023/10/12 05:32:06;;;;;;;18.10;12.27;;;16.30;99.90;;;;;;5107189;27;20752;-79
2023/10/12 05:34:44;;;;;;;19.42;13.20;;;16.30;99.90;;;;;;5092543;28;20582;-80
2023/10/12 05:37:37;;;;;;;18.88;12.70;;;16.20;99.90;;;;;;5083992;28;20197;-80
2023/10/12 05:40:11;;;;;;;18.75;12.05;;;16.20;99.90;;;;;;5092445;28;20220;-81
2023/10/12 05:42:39;;;;;;;16.30;13.02;;;16.30;99.90;;;;;;5087603;28;20197;-81
2023/10/12 05:45:21;;;;;;;20.65;13.60;;;16.30;99.90;;;;;;5091773;28;20236;-80
2023/10/12 05:47:52;;;;;;;24.85;16.42;;;16.30;99.90;;;;;;5092246;28;20674;-80
2023/10/12 05:50:23;;;;;;;19.33;13.77;;;16.30;99.90;;;;;;5093970;28;20555;-78
2023/10/12 05:52:52;;;;;;;19.52;13.68;;;16.20;99.90;;;;;;5095125;28;20205;-80
2023/10/12 05:55:21;;;;;;;23.67;13.18;;;16.20;99.90;;;;;;5095888;28;20228;-80
2023/10/12 05:58:11;;;;;;;19.00;12.55;;;16.10;99.90;;;;;;5095010;28;20717;-80
2023/10/12 06:00:41;;;;;;;18.73;12.02;;;16.20;99.90;;;;;;5084247;28;20687;-80
2023/10/12 06:03:15;;;;;;;15.25;10.88;;;16.30;99.90;;;;;;5095071;28;20200;-80
2023/10/12 06:05:44;;;;;;;16.15;11.68;;;16.30;99.90;;;;;;5095335;28;20208;-80
2023/10/12 06:08:20;;;;;;;16.05;10.60;;;16.40;99.90;;;;;;5095490;28;20204;-80
2023/10/12 06:10:47;;;;;;;13.25;9.88;;;16.30;99.90;;;;;;5085178;28;20208;-79
2023/10/12 06:13:30;;;;;;;15.57;9.90;;;16.40;99.90;;;;;;5093113;28;20209;-79
2023/10/12 06:15:57;;;;;;;14.23;10.02;;;16.30;99.90;;;;;;5087292;28;20205;-80
2023/10/12 06:18:54;;;;;;;14.32;10.52;;;16.30;99.90;;;;;;5089986;28;20204;-80
2023/10/12 06:21:24;;;;;;;13.80;9.88;;;16.20;99.90;;;;;;5094476;28;20205;-80
2023/10/12 06:24:00;;;;;;;14.98;10.02;;;16.30;99.90;;;;;;5084173;28;20717;-80
2023/10/12 06:26:30;;;;;;;13.25;9.90;;;16.40;99.90;;;;;;5092159;28;20185;-81
2023/10/12 06:28:58;;;;;;;12.45;9.32;;;16.30;99.90;;;;;;5093564;28;20202;-81
2023/10/12 06:31:29;;;;;;;16.55;9.32;;;16.30;99.90;;;;;;5085618;28;20205;-81
2023/10/12 06:33:57;;;;;;;17.38;9.57;;;16.40;99.90;;;;;;5087437;28;20216;-80
2023/10/12 06:36:37;;;;;;;15.27;9.63;;;16.40;99.90;;;;;;5096740;28;20208;-80
2023/10/12 06:42:09;;;;;;;15.20;9.70;;;16.30;99.90;;;;;;5087962;28;20217;-81
2023/10/12 06:44:35;;;;;;;15.98;9.73;;;16.30;99.90;;;;;;5073673;28;20217;-80
2023/10/12 06:47:28;;;;;;;12.52;9.15;;;16.30;99.90;;;;;;5085456;28;20263;-80
2023/10/12 06:49:51;;;;;;;12.50;9.30;;;16.30;99.90;;;;;;5088024;28;20197;-79
2023/10/12 06:52:23;;;;;;;16.20;9.63;;;16.30;99.90;;;;;;5090076;28;20252;-81
2023/10/12 06:54:54;;;;;;;12.20;9.50;;;16.30;99.90;;;;;;5086685;28;20217;-81
2023/10/12 06:57:35;;;;;;;11.25;9.27;;;16.30;99.90;;;;;;5091452;28;20188;-81
2023/10/12 07:00:33;;;;;;;16.73;10.40;;;16.30;99.90;;;;;;5101585;28;20196;-81
2023/10/12 07:03:00;;;;;;;19.10;10.57;;;16.40;99.90;;;;;;5095076;28;20207;-81
2023/10/12 07:05:33;;;;;;;14.40;9.55;;;16.30;99.90;;;;;;5082177;28;20198;-81
2023/10/12 07:08:18;;;;;;;15.32;10.07;;;16.30;99.90;;;;;;5091150;28;20201;-81
2023/10/12 07:10:54;;;;;;;13.82;8.93;;;16.40;99.90;;;;;;5090829;28;20204;-81
2023/10/12 07:13:25;;;;;;;15.32;9.80;;;16.40;99.90;;;;;;5093263;28;20545;-81
2023/10/12 07:15:53;;;;;;;13.57;9.35;;;16.40;99.90;;;;;;5100891;28;20196;-81
2023/10/12 07:18:22;;;;;;;13.43;8.95;;;16.50;99.90;;;;;;5104731;28;20685;-81
2023/10/12 07:20:49;;;;;;;14.07;9.45;;;16.40;99.90;;;;;;5108972;28;20203;-81
2023/10/12 07:23:20;;;;;;;14.35;9.48;;;16.50;99.90;;;;;;5089237;28;20195;-81
2023/10/12 07:25:58;;;;;;;16.45;9.18;;;16.50;99.90;;;;;;5094808;28;20197;-79
2023/10/12 07:28:32;;;;;;;16.27;9.40;;;16.50;99.90;;;;;;5096698;28;20212;-79
2023/10/12 07:31:51;;;;;;;12.50;8.98;;;16.40;99.90;;;;;;5100533;28;20189;-80
2023/10/12 07:34:23;;;;;;;12.82;9.00;;;16.50;99.90;;;;;;5092519;28;20228;-80
2023/10/12 07:36:57;;;;;;;11.90;9.25;;;16.50;99.90;;;;;;5099664;28;20212;-80
2023/10/12 07:39:38;;;;;;;11.48;8.95;;;16.50;99.90;;;;;;5088713;28;20201;-79
2023/10/12 07:42:14;;;;;;;12.20;8.40;;;16.60;99.90;;;;;;5089949;28;20706;-78
2023/10/12 07:44:42;;;;;;;12.38;8.90;;;16.50;99.90;;;;;;5085803;28;20221;-78
2023/10/12 07:47:22;;;;;;;16.55;9.63;;;16.50;99.90;;;;;;5098525;28;20212;-78
2023/10/12 07:49:51;;;;;;;12.88;8.15;;;16.50;99.90;;;;;;5094134;28;20520;-79
2023/10/12 07:52:46;;;;;;;12.85;7.82;;;16.60;99.90;;;;;;5088882;28;20200;-78
2023/10/12 07:55:16;;;;;;;13.38;8.15;;;16.60;99.90;;;;;;5090239;28;20546;-79
2023/10/12 07:57:57;;;;;;;14.52;8.77;;;16.70;99.90;;;;;;5091341;28;20193;-79
2023/10/12 08:00:35;;;;;;;11.90;7.65;;;16.70;99.90;;;;;;5083259;28;20204;-80
2023/10/12 08:03:18;;;;;;;13.45;7.85;;;16.70;99.90;;;;;;5091168;28;20228;-79
2023/10/12 08:06:07;;;;;;;13.38;8.43;;;16.70;99.90;;;;;;5096838;28;20188;-80
2023/10/12 08:08:34;;;;;;;13.63;8.45;;;16.60;99.90;;;;;;5101165;28;20200;-79
2023/10/12 08:11:10;;;;;;;15.35;8.95;;;16.70;99.90;;;;;;5100838;28;20200;-80
2023/10/12 08:13:48;;;;;;;13.07;8.77;;;16.70;99.90;;;;;;5094878;28;20227;-79
2023/10/12 08:16:25;;;;;;;13.10;8.77;;;16.70;99.90;;;;;;5099353;28;20197;-81
2023/10/12 08:21:38;;;;;;;13.45;8.10;;;16.80;99.90;;;;;;5072620;28;20295;-81
2023/10/12 08:24:10;;;;;;;11.63;8.30;;;16.80;99.90;;;;;;5087620;28;20231;-81
2023/10/12 08:26:57;;;;;;;13.70;8.85;;;16.80;99.90;;;;;;5091468;28;20539;-81
2023/10/12 08:32:27;;;;;;;15.88;8.32;;;17.00;99.90;;;;;;5106881;28;20189;-85
2023/10/12 08:38:11;;;;;;;13.93;8.65;;;16.90;99.90;;;;;;5093964;28;20674;-85
2023/10/12 08:41:19;;;;;;;13.20;8.27;;;17.00;99.90;;;;;;5093891;28;20197;-85
2023/10/12 08:43:45;;;;;;;11.65;8.00;;;17.00;99.90;;;;;;5096709;28;20211;-83
2023/10/12 08:46:48;;;;;;;13.25;8.57;;;16.90;99.90;;;;;;5096253;27;20201;-82
2023/10/12 08:52:05;;;;;;;12.13;7.88;;;16.90;99.90;;;;;;5097700;28;20193;-80
2023/10/12 08:54:37;;;;;;;18.23;8.57;;;17.00;99.90;;;;;;5092735;28;20239;-80
2023/10/12 08:57:13;;;;;;;14.32;7.95;;;16.90;99.90;;;;;;5085710;28;20201;-80
2023/10/12 08:59:57;;;;;;;15.60;8.35;;;16.90;99.90;;;;;;5093288;28;20188;-79
2023/10/12 09:02:26;;;;;;;15.32;8.57;;;16.90;99.90;;;;;;5090611;28;20232;-80
2023/10/12 09:04:57;;;;;;;13.13;8.82;;;17.00;99.90;;;;;;5082191;28;20220;-79
2023/10/12 09:07:36;;;;;;;13.85;7.63;;;17.00;99.90;;;;;;5088329;28;20196;-79
2023/10/12 09:10:28;;;;;;;12.40;7.88;;;16.90;99.90;;;;;;5090838;28;20203;-79
2023/10/12 09:12:51;;;;;;;13.00;8.40;;;16.90;99.90;;;;;;5092638;28;20527;-79
2023/10/12 09:15:29;;;;;;;15.30;8.43;;;16.90;99.90;;;;;;5093060;28;20216;-79
2023/10/12 09:17:58;;;;;;;10.95;8.07;;;16.90;99.90;;;;;;5090960;28;20200;-79
2023/10/12 09:20:30;;;;;;;16.77;8.35;;;16.90;99.90;;;;;;5083433;28;20198;-79
2023/10/12 09:23:11;;;;;;;12.57;8.30;;;16.90;99.90;;;;;;5091813;28;20221;-80
2023/10/12 09:28:36;;;;;;;13.73;8.43;;;16.80;99.90;;;;;;5088619;28;20189;-80
2023/10/12 09:31:09;;;;;;;14.60;9.05;;;16.80;99.90;;;;;;5084196;28;20562;-79
2023/10/12 09:33:54;;;;;;;12.70;9.07;;;16.90;99.90;;;;;;5088697;28;20205;-79
2023/10/12 09:36:22;;;;;;;13.82;8.88;;;16.80;99.90;;;;;;5088267;28;20216;-80
2023/10/12 09:38:55;;;;;;;13.70;7.82;;;16.80;99.90;;;;;;5093496;28;20208;-79
2023/10/12 09:41:28;;;;;;;13.38;9.18;;;16.90;99.90;;;;;;5085951;28;20197;-80
2023/10/12 09:43:57;;;;;;;14.93;9.38;;;16.90;99.90;;;;;;5092528;28;20209;-79
2023/10/12 09:46:27;;;;;;;19.40;9.05;;;16.90;99.90;;;;;;5088803;28;20196;-79
2023/10/12 09:49:02;;;;;;;13.00;9.02;;;16.90;99.90;;;;;;5091523;28;20201;-80
2023/10/12 09:51:36;;;;;;;14.63;8.93;;;16.90;99.90;;;;;;5087389;28;20188;-79
2023/10/12 09:54:15;;;;;;;13.57;8.98;;;17.00;99.90;;;;;;5087171;28;20230;-80
2023/10/12 09:56:47;;;;;;;13.18;8.48;;;17.10;99.90;;;;;;5090806;28;20681;-79
2023/10/12 09:59:18;;;;;;;12.48;8.82;;;17.20;99.90;;;;;;5088716;28;20194;-81
2023/10/12 10:01:51;;;;;;;14.90;8.82;;;17.20;99.90;;;;;;5091026;28;20208;-80
2023/10/12 10:04:29;;;;;;;14.20;8.85;;;17.20;99.90;;;;;;5093481;28;20217;-81
2023/10/12 10:07:15;;;;;;;13.02;8.25;;;17.20;99.90;;;;;;5094564;28;20197;-81
2023/10/12 10:09:46;;;;;;;31.80;11.68;;;17.20;99.90;;;;;;5080275;28;20216;-80
2023/10/12 10:12:16;;;;;;;13.00;8.30;;;17.30;99.90;;;;;;5089286;28;20194;-80
2023/10/12 10:14:46;;;;;;;14.98;8.85;;;17.20;99.90;;;;;;5090778;28;20216;-81
2023/10/12 10:17:35;;;;;;;16.20;7.85;;;17.30;99.90;;;;;;5090193;28;20197;-80
2023/10/12 10:20:45;;;;;;;12.05;8.43;;;17.30;99.90;;;;;;5096255;28;20202;-81
2023/10/12 10:23:14;;;;;;;11.35;7.43;;;17.20;99.90;;;;;;5089858;28;20231;-80
2023/10/12 10:25:46;;;;;;;12.43;7.93;;;17.30;99.90;;;;;;5087083;28;20666;-81
2023/10/12 10:28:23;;;;;;;15.35;9.00;;;17.30;99.90;;;;;;5087839;28;20189;-81
2023/10/12 10:30:52;;;;;;;13.55;7.82;;;17.40;99.90;;;;;;5084305;28;20212;-81
2023/10/12 10:33:23;;;;;;;14.75;8.93;;;17.40;99.90;;;;;;5093678;28;20189;-81
2023/10/12 10:36:10;;;;;;;13.02;8.20;;;17.30;99.90;;;;;;5089703;28;20196;-81
2023/10/12 10:38:49;;;;;;;15.10;8.98;;;17.30;99.90;;;;;;5085864;28;20208;-81
2023/10/12 10:41:22;;;;;;;12.73;8.05;;;17.40;99.90;;;;;;5090645;28;20204;-81
2023/10/12 10:43:51;;;;;;;13.35;8.93;;;17.50;99.90;;;;;;5081382;28;20236;-81
2023/10/12 10:46:18;;;;;;;12.18;8.40;;;17.50;99.90;;;;;;5081502;28;20212;-81
2023/10/12 10:48:49;;;;;;;12.50;8.55;;;17.60;99.90;;;;;;5086809;28;20208;-81
2023/10/12 10:51:19;;;;;;;9.85;7.72;;;17.60;99.90;;;;;;5087102;28;20201;-81
2023/10/12 10:53:55;;;;;;;13.57;8.13;;;17.70;99.90;;;;;;5085838;28;20616;-81
2023/10/12 10:56:34;;;;;;;13.10;8.02;;;17.80;99.90;;;;;;5092220;28;20201;-81
2023/10/12 10:59:01;;;;;;;11.43;7.85;;;17.80;99.90;;;;;;5094176;28;20199;-81
2023/10/12 11:01:30;;;;;;;11.85;7.65;;;17.90;99.90;;;;;;5081610;28;20697;-81
2023/10/12 11:04:01;;;;;;;14.90;7.97;;;18.00;99.90;;;;;;5083600;28;20612;-81
2023/10/12 11:06:31;;;;;;;12.25;7.05;;;18.00;99.90;;;;;;5094264;28;20557;-81
2023/10/12 11:09:05;;;;;;;12.52;7.65;;;18.00;99.90;;;;;;5090130;28;20197;-81
2023/10/12 11:11:38;;;;;;;12.80;7.75;;;18.10;99.90;;;;;;5092452;28;20551;-81
2023/10/12 11:14:08;;;;;;;11.27;6.82;;;18.10;99.90;;;;;;5090428;28;20586;-81
2023/10/12 11:16:37;;;;;;;16.27;7.88;;;18.10;99.90;;;;;;5093287;28;20197;-81
2023/10/12 11:19:08;;;;;;;9.18;6.82;;;18.20;99.90;;;;;;5092496;28;20205;-81
2023/10/12 11:21:43;;;;;;;12.65;7.20;;;18.30;99.90;;;;;;5093103;28;20228;-81
2023/10/12 11:24:18;;;;;;;14.68;7.90;;;18.10;99.90;;;;;;5103311;28;20235;-81
2023/10/12 11:26:58;;;;;;;10.60;7.53;;;18.10;99.90;;;;;;5094470;28;20215;-81
2023/10/12 11:29:50;;;;;;;12.63;7.90;;;18.10;99.90;;;;;;5094608;28;20196;-81
2023/10/12 11:32:26;;;;;;;12.98;7.97;;;18.10;99.90;;;;;;5092293;28;20197;-82
2023/10/12 11:34:59;;;;;;;16.10;8.40;;;18.20;99.90;;;;;;5080621;28;20213;-80
2023/10/12 11:37:29;;;;;;;13.05;7.93;;;18.20;99.90;;;;;;5087664;28;20196;-81
2023/10/12 11:39:57;;;;;;;9.63;7.25;;;18.20;99.90;;;;;;5091994;28;20203;-80
2023/10/12 11:42:24;;;;;;;12.68;7.85;;;18.20;99.90;;;;;;5090974;28;20197;-81
2023/10/12 11:44:52;;;;;;;13.55;7.85;;;18.20;99.90;;;;;;5091977;28;20236;-81
2023/10/12 11:47:39;;;;;;;12.15;8.15;;;18.20;99.90;;;;;;5085304;28;20197;-81
2023/10/12 11:50:11;;;;;;;15.18;8.40;;;18.20;99.90;;;;;;5093695;28;20189;-81
2023/10/12 11:52:40;;;;;;;17.27;8.38;;;18.20;99.90;;;;;;5090741;28;20197;-81
2023/10/12 11:55:18;;;;;;;14.77;8.38;;;18.20;99.90;;;;;;5091760;28;20221;-81
2023/10/12 11:57:48;;;;;;;12.00;9.25;;;18.30;99.90;;;;;;5094176;28;20200;-81
2023/10/12 12:00:21;;;;;;;13.57;7.88;;;18.20;99.90;;;;;;5094867;28;20572;-81
2023/10/12 12:02:52;;;;;;;14.82;9.57;;;18.30;99.90;;;;;;5096077;28;20212;-81
2023/10/12 12:05:21;;;;;;;14.00;8.57;;;18.20;99.90;;;;;;5093568;28;20611;-81
2023/10/12 12:07:51;;;;;;;12.80;8.80;;;18.30;99.90;;;;;;5092200;28;20204;-81
2023/10/12 12:10:24;;;;;;;10.25;7.63;;;18.30;99.90;;;;;;5095637;28;20201;-81
2023/10/12 12:12:57;;;;;;;13.18;8.55;;;18.20;99.90;;;;;;5095961;28;20201;-81
2023/10/12 12:15:25;;;;;;;15.88;8.88;;;18.30;99.90;;;;;;5094754;28;20223;-81
2023/10/12 12:17:52;;;;;;;13.20;8.75;;;18.10;99.90;;;;;;5091846;28;20208;-81
2023/10/12 12:20:22;;;;;;;11.75;8.27;;;18.10;99.90;;;;;;5097081;28;20193;-81
2023/10/12 12:22:57;;;;;;;13.88;8.52;;;18.00;99.90;;;;;;5096313;28;20192;-81
2023/10/12 12:25:31;;;;;;;14.50;9.00;;;18.10;99.90;;;;;;5094390;28;20215;-81
2023/10/12 12:28:02;;;;;;;19.85;9.10;;;18.10;99.90;;;;;;5094593;28;20215;-81
2023/10/12 12:30:32;;;;;;;13.00;8.35;;;18.00;99.90;;;;;;5095871;28;20552;-81
2023/10/12 12:33:00;;;;;;;14.20;9.15;;;18.00;99.90;;;;;;5095023;28;20570;-81
2023/10/12 12:35:29;;;;;;;16.00;9.70;;;18.10;99.90;;;;;;5094330;28;20208;-81
2023/10/12 12:38:01;;;;;;;17.85;9.85;;;18.10;99.90;;;;;;5094642;28;20204;-81
2023/10/12 12:40:31;;;;;;;14.15;9.32;;;18.10;99.90;;;;;;5094920;28;20197;-81
2023/10/12 12:43:00;;;;;;;17.73;9.93;;;18.00;99.90;;;;;;5095486;28;20200;-81
2023/10/12 12:45:30;;;;;;;18.77;10.13;;;18.10;99.90;;;;;;5093661;28;20201;-81
2023/10/12 12:47:57;;;;;;;15.07;8.82;;;18.10;99.90;;;;;;5094181;28;20204;-81
2023/10/12 12:50:28;;;;;;;15.77;9.95;;;18.20;99.90;;;;;;5093410;28;20663;-81
2023/10/12 12:52:57;;;;;;;16.10;9.90;;;18.20;99.90;;;;;;5095609;28;20666;-81
2023/10/12 12:55:27;;;;;;;18.45;9.63;;;18.30;99.90;;;;;;5094542;28;20225;-81
2023/10/12 12:57:56;;;;;;;15.70;9.35;;;18.30;99.90;;;;;;5094621;28;20204;-81
2023/10/12 13:00:24;;;;;;;14.30;9.30;;;18.30;99.90;;;;;;5094554;28;20705;-81
2023/10/12 13:02:52;;;;;;;14.70;9.35;;;18.40;99.90;;;;;;5094572;28;20216;-81
2023/10/12 13:05:20;;;;;;;16.05;10.50;;;18.40;99.90;;;;;;5093708;28;20236;-81
2023/10/12 13:07:48;;;;;;;16.17;10.20;;;18.30;99.90;;;;;;5090367;28;20211;-81
2023/10/12 13:10:15;;;;;;;18.20;10.77;;;18.40;99.90;;;;;;5095249;28;20205;-80
2023/10/12 13:12:44;;;;;;;16.15;10.55;;;18.40;99.90;;;;;;5091584;28;20218;-81
2023/10/12 13:15:12;;;;;;;15.15;9.95;;;18.50;99.90;;;;;;5087081;28;20201;-80
2023/10/12 13:17:59;;;;;;;17.00;11.10;;;18.40;99.90;;;;;;5096930;28;20189;-80
2023/10/12 13:20:33;;;;;;;14.68;9.93;;;18.40;99.90;;;;;;5090877;28;20185;-80
2023/10/12 13:23:00;;;;;;;14.48;10.60;;;18.50;99.90;;;;;;5092033;28;20206;-80
2023/10/12 13:25:28;;;;;;;17.77;10.60;;;18.50;99.90;;;;;;5084680;28;20236;-80
2023/10/12 13:27:57;;;;;;;14.73;10.60;;;18.50;99.90;;;;;;5082966;28;20204;-81
2023/10/12 13:30:25;;;;;;;13.73;10.60;;;18.30;99.90;;;;;;5089229;28;20193;-80
2023/10/12 13:32:59;;;;;;;16.20;11.20;;;18.30;99.90;;;;;;5092399;28;20212;-80
2023/10/12 13:35:31;;;;;;;18.90;11.90;;;18.30;99.90;;;;;;5086647;28;20211;-80
2023/10/12 13:38:02;;;;;;;13.32;11.20;;;18.20;99.90;;;;;;5087595;28;20718;-80
2023/10/12 13:40:30;;;;;;;14.82;11.43;;;18.20;99.90;;;;;;5095534;28;20208;-80